Aérodrome :
LOGIN :

S'inscrire | Disclaimer

   EN    FR    IT 

 










Légende :    VFR   VFR Marginal   IFR   IFR Intensif   IFR Très Intensif
Visi : 
Plafond : 
>= 8 km
>= 3000ft
5 à 8 km
1000 à 3000 ft
1500m à 5 km
500 à 1000 ft
800 à 1500m
200 à 500 ft
< 800m
< 200 ft
Symboles :   Orages  Brouillard  Fortes neiges  Fortes précipitations  Vent > 20 kt
SIGMETs :   Divers  Orages  Givrage  Turbulence  Onde Orograph.  Cendres Volcan.







- Altitude de l'aérodrome : 1267 ft
- Code IATA : CUF


LIMZ - Cuneo Levaldigi

DERNIER METAR :
  • 280950Z 36006KT 300V030 9999 FEW015 BKN025 23/18 Q1003

METARs EXPIRÉS :
  • 280850Z 34005KT 300V010 9999 FEW015 BKN025 21/19 Q1004
  • 280750Z 31004KT 260V010 7000 BKN020 21/18 Q1004

TAF TAF LIMZ
Valide du 28 à 06h jusqu'au 29 à 06h UTC


280500Z 2806/2906 VRB05KT 2500 BR BKN008
BECMG 2807/2809 7000 BKN040
TEMPO 2809/2820 VRB15G25KT 3000 TSRA BKN010CB
TEMPO 2820/2906 2500 BR
Pas de NOTAMs connus pour ce terrain.
1 SIGMET publié pour la FIR Milano (LIMM) :
 
Orages noyés dans la masse
LIMM SIGMET 3 VALID 280650/281050 LIMM- LIMM MILANO FIR EMBD TS FCST N OF LINE N4347 E00717 - N4415 E00818 - N4507 E00824 - N4525 E00924 - N4539 E01118 - N4559 E01227 - N4609 E01340 - N4347 E00717 TOP FL400 MOV NE NC=



MET'MAP, la Météo Aéronautique d'un coup d'oeil ! - Copyright ORBIFLY Décembre 2007 - Disclaimer

ORBIFLY MET'MAP TEAM :

Programmation & Développement : Alexandra Zaïnal
Conception & Développement : Baudouin d'Aumeries
Co-Programmation & Développement : Marc-Olivier Méhu
Soutien technique & logistique : Manuel Goepfert

Contact : metmap@orbifly.com




SOURCES & CREDITS :

   NOAA